Aviation Digital Data Service (ADDS)

Output produced by METARs form (1210 UTC 15 November 2018)
found at http://www.aviationweather.gov/metar/data/
 
KXNA 151120Z 1512/1612 00000KT P6SM SKC 
     FM151700 21010KT P6SM SKC